Time;durP1;ratioP1;P1;durP2;ratioP2;P2;SDS_P1;SDS_P2;PMS_P1;PMS_P2;Temp;Humidity;BMP_temperature;BMP_pressure;BME280_temperature;BME280_humidity;BME280_pressure;Samples;Min_cycle;Max_cycle;Signal;HPM_P1;HPM_P2
2023/09/24 00:02:20;;;;;;;5.25;2.55;;;;;;;;;;5035519;28;20054;-91
2023/09/24 00:04:48;;;;;;;4.72;2.42;;;;;;;;;;5035253;28;20057;-92
2023/09/24 00:07:15;;;;;;;3.28;2.30;;;;;;;;;;5051692;28;20064;-92
2023/09/24 00:09:43;;;;;;;5.10;2.65;;;;;;;;;;5051372;28;20045;-91
2023/09/24 00:12:10;;;;;;;5.07;2.78;;;;;;;;;;5035321;28;20053;-92
2023/09/24 00:14:38;;;;;;;2.95;2.60;;;;;;;;;;5035318;28;20049;-92
2023/09/24 00:17:08;;;;;;;2.63;2.42;;;;;;;;;;5035227;28;20068;-92
2023/09/24 00:19:35;;;;;;;3.17;2.90;;;;;;;;;;5034628;28;20053;-92
2023/09/24 00:22:04;;;;;;;3.03;2.60;;;;;;;;;;5035065;28;20053;-92
2023/09/24 00:24:31;;;;;;;3.17;2.55;;;;;;;;;;5035227;28;20049;-92
2023/09/24 00:26:59;;;;;;;3.47;2.55;;;;;;;;;;5034829;28;20049;-92
2023/09/24 00:29:26;;;;;;;5.63;2.70;;;;;;;;;;5034705;28;20398;-92
2023/09/24 00:31:54;;;;;;;3.42;2.70;;;;;;;;;;5034688;28;20120;-92
2023/09/24 00:34:21;;;;;;;3.47;2.95;;;;;;;;;;5035671;28;20051;-92
2023/09/24 00:36:53;;;;;;;4.82;3.20;;;;;;;;;;5034723;28;20115;-92
2023/09/24 00:39:21;;;;;;;8.10;4.18;;;;;;;;;;5034781;28;20133;-93
2023/09/24 00:41:49;;;;;;;4.30;2.78;;;;;;;;;;5032902;28;20054;-92
2023/09/24 00:44:17;;;;;;;6.90;3.33;;;;;;;;;;5034676;28;20136;-92
2023/09/24 00:46:45;;;;;;;6.65;3.25;;;;;;;;;;5034008;28;20057;-92
2023/09/24 00:49:13;;;;;;;8.98;3.38;;;;;;;;;;5034676;28;20050;-93
2023/09/24 00:51:41;;;;;;;4.95;3.30;;;;;;;;;;5034253;28;20061;-92
2023/09/24 00:54:09;;;;;;;3.42;3.15;;;;;;;;;;5034636;28;20438;-92
2023/09/24 00:56:37;;;;;;;6.45;2.75;;;;;;;;;;5034448;28;20494;-91
2023/09/24 00:59:06;;;;;;;3.35;2.55;;;;;;;;;;5033448;28;20405;-92
2023/09/24 01:01:34;;;;;;;4.40;3.13;;;;;;;;;;5033680;28;20049;-92
2023/09/24 01:04:08;;;;;;;3.85;2.75;;;;;;;;;;5026390;28;20053;-92
2023/09/24 01:06:36;;;;;;;3.35;3.00;;;;;;;;;;5033929;28;20049;-92
2023/09/24 01:09:06;;;;;;;5.65;3.22;;;;;;;;;;5034322;28;20045;-92
2023/09/24 01:11:33;;;;;;;3.95;3.17;;;;;;;;;;5033556;28;20049;-92
2023/09/24 01:14:01;;;;;;;5.05;3.50;;;;;;;;;;5025765;28;20053;-92
2023/09/24 01:16:29;;;;;;;5.32;3.45;;;;;;;;;;5033813;28;20498;-92
2023/09/24 01:18:56;;;;;;;3.33;3.00;;;;;;;;;;5034175;28;20489;-91
2023/09/24 01:21:27;;;;;;;5.55;3.78;;;;;;;;;;5033812;28;20469;-92
2023/09/24 01:23:59;;;;;;;4.03;3.60;;;;;;;;;;5034105;28;20561;-92
2023/09/24 01:26:27;;;;;;;4.60;3.38;;;;;;;;;;5033733;28;20069;-92
2023/09/24 01:28:55;;;;;;;4.38;3.35;;;;;;;;;;5033984;28;20065;-92
2023/09/24 01:31:22;;;;;;;5.22;3.22;;;;;;;;;;5035358;28;20057;-90
2023/09/24 01:33:49;;;;;;;3.50;3.20;;;;;;;;;;5050119;28;20029;-92
2023/09/24 01:36:19;;;;;;;6.57;3.00;;;;;;;;;;5038789;28;20057;-93
2023/09/24 01:38:47;;;;;;;3.38;3.08;;;;;;;;;;5034639;28;20049;-92
2023/09/24 01:41:15;;;;;;;4.93;3.50;;;;;;;;;;5033441;28;20073;-92
2023/09/24 01:43:43;;;;;;;3.47;3.10;;;;;;;;;;5033772;28;20049;-92
2023/09/24 01:46:13;;;;;;;4.28;3.45;;;;;;;;;;5033577;28;20132;-92
2023/09/24 01:48:43;;;;;;;5.00;3.55;;;;;;;;;;5033596;28;20050;-92
2023/09/24 01:51:11;;;;;;;3.75;3.40;;;;;;;;;;5033326;28;20049;-92
2023/09/24 01:53:40;;;;;;;6.50;3.63;;;;;;;;;;5033690;28;20068;-92
2023/09/24 01:56:08;;;;;;;4.25;3.20;;;;;;;;;;5033689;28;20053;-92
2023/09/24 01:58:39;;;;;;;5.00;3.25;;;;;;;;;;5033548;28;20056;-92
2023/09/24 02:01:07;;;;;;;3.20;2.90;;;;;;;;;;5029889;28;20046;-93
2023/09/24 02:03:35;;;;;;;3.85;3.50;;;;;;;;;;5046062;28;20145;-92
2023/09/24 02:06:04;;;;;;;5.32;3.72;;;;;;;;;;5032850;28;20540;-92
2023/09/24 02:08:31;;;;;;;3.83;3.53;;;;;;;;;;5033069;28;20421;-93
2023/09/24 02:10:59;;;;;;;3.35;3.15;;;;;;;;;;5032442;28;20049;-92
2023/09/24 02:13:27;;;;;;;5.63;3.15;;;;;;;;;;5032698;28;20045;-92
2023/09/24 02:15:55;;;;;;;4.35;2.97;;;;;;;;;;5032437;28;20073;-92
2023/09/24 02:18:22;;;;;;;3.33;3.00;;;;;;;;;;5032759;28;20478;-92
2023/09/24 02:20:52;;;;;;;3.65;3.25;;;;;;;;;;5031194;28;20054;-92
2023/09/24 02:23:23;;;;;;;4.32;3.20;;;;;;;;;;5032941;28;20067;-92
2023/09/24 02:25:51;;;;;;;2.85;2.65;;;;;;;;;;5032610;28;20053;-93
2023/09/24 02:28:19;;;;;;;5.32;2.58;;;;;;;;;;5033151;28;20049;-92
2023/09/24 02:30:47;;;;;;;3.33;3.13;;;;;;;;;;5032135;28;20057;-92
2023/09/24 02:33:15;;;;;;;3.97;3.35;;;;;;;;;;5032441;28;20111;-92
2023/09/24 02:35:43;;;;;;;4.35;3.00;;;;;;;;;;5032612;28;20060;-92
2023/09/24 02:38:10;;;;;;;4.68;2.85;;;;;;;;;;5029360;28;20077;-92
2023/09/24 02:40:38;;;;;;;4.43;2.97;;;;;;;;;;5045571;28;20099;-92
2023/09/24 02:43:06;;;;;;;3.92;3.13;;;;;;;;;;5032562;28;20049;-93
2023/09/24 02:45:34;;;;;;;11.38;3.30;;;;;;;;;;5032219;28;20432;-92
2023/09/24 02:48:04;;;;;;;5.47;3.42;;;;;;;;;;5023795;28;20103;-93
2023/09/24 02:50:32;;;;;;;3.75;2.95;;;;;;;;;;5032119;28;20144;-94
2023/09/24 02:53:00;;;;;;;6.40;3.20;;;;;;;;;;5031915;28;20054;-92
2023/09/24 02:55:29;;;;;;;4.68;3.88;;;;;;;;;;5032271;28;20413;-92
2023/09/24 02:57:56;;;;;;;3.83;3.03;;;;;;;;;;5032122;28;20061;-92
2023/09/24 03:00:27;;;;;;;3.45;3.15;;;;;;;;;;5032162;28;20048;-92
2023/09/24 03:02:56;;;;;;;5.25;3.78;;;;;;;;;;5032117;28;20054;-92
2023/09/24 03:05:26;;;;;;;8.52;3.72;;;;;;;;;;5032165;28;20053;-92
2023/09/24 03:07:55;;;;;;;8.13;3.92;;;;;;;;;;5032140;28;20085;-92
2023/09/24 03:10:24;;;;;;;3.78;3.30;;;;;;;;;;5031819;28;20046;-92
2023/09/24 03:12:51;;;;;;;3.50;3.20;;;;;;;;;;5032032;28;20057;-92
2023/09/24 03:15:20;;;;;;;3.63;2.85;;;;;;;;;;5032069;28;20099;-92
2023/09/24 03:17:47;;;;;;;7.18;3.20;;;;;;;;;;5031654;28;20061;-92
2023/09/24 03:20:19;;;;;;;4.15;3.00;;;;;;;;;;5031874;28;20056;-92
2023/09/24 03:22:51;;;;;;;3.70;3.40;;;;;;;;;;5034179;28;20056;-91
2023/09/24 03:25:19;;;;;;;3.60;3.30;;;;;;;;;;5035836;28;20055;-92
2023/09/24 03:27:47;;;;;;;3.60;3.30;;;;;;;;;;5035886;28;20060;-92
2023/09/24 03:30:17;;;;;;;7.22;3.20;;;;;;;;;;5035915;28;20049;-92
2023/09/24 03:32:46;;;;;;;4.05;3.75;;;;;;;;;;5036010;28;20595;-92
2023/09/24 03:35:15;;;;;;;6.18;2.90;;;;;;;;;;5036472;28;20057;-92
2023/09/24 03:37:45;;;;;;;5.07;3.33;;;;;;;;;;5035984;28;20057;-92
2023/09/24 03:40:15;;;;;;;3.70;3.33;;;;;;;;;;5036240;28;20107;-92
2023/09/24 03:42:43;;;;;;;4.47;3.45;;;;;;;;;;5036013;28;20060;-92
2023/09/24 03:45:11;;;;;;;3.45;3.25;;;;;;;;;;5036137;28;20409;-91
2023/09/24 03:47:39;;;;;;;5.65;3.45;;;;;;;;;;5035877;28;20108;-92
2023/09/24 03:50:13;;;;;;;4.50;3.28;;;;;;;;;;5051905;28;20414;-94
2023/09/24 03:52:42;;;;;;;3.60;3.30;;;;;;;;;;5035665;28;20061;-92
2023/09/24 03:55:09;;;;;;;3.90;3.47;;;;;;;;;;5035953;28;20128;-92
2023/09/24 03:57:37;;;;;;;5.22;3.58;;;;;;;;;;5035446;28;20072;-92
2023/09/24 04:00:11;;;;;;;4.28;3.33;;;;;;;;;;5035623;28;20501;-92
2023/09/24 04:02:43;;;;;;;6.60;4.05;;;;;;;;;;5035132;28;20076;-91
2023/09/24 04:05:14;;;;;;;3.83;3.53;;;;;;;;;;5035705;28;20553;-92
2023/09/24 04:07:42;;;;;;;4.65;3.10;;;;;;;;;;5035671;28;20056;-93
2023/09/24 04:10:14;;;;;;;3.97;3.28;;;;;;;;;;5043553;28;20053;-92
2023/09/24 04:12:51;;;;;;;3.70;3.03;;;;;;;;;;5035052;28;20053;-92
2023/09/24 04:15:21;;;;;;;9.30;3.28;;;;;;;;;;5035095;28;20048;-92
2023/09/24 04:17:50;;;;;;;4.32;3.85;;;;;;;;;;5035209;28;20061;-93
2023/09/24 04:20:20;;;;;;;3.33;3.03;;;;;;;;;;5034979;28;20053;-91
2023/09/24 04:22:48;;;;;;;6.85;3.95;;;;;;;;;;5035295;28;20517;-92
2023/09/24 04:25:17;;;;;;;4.80;3.58;;;;;;;;;;5035741;28;20124;-93
2023/09/24 04:27:45;;;;;;;4.05;3.70;;;;;;;;;;5036172;28;20564;-92
2023/09/24 04:30:16;;;;;;;4.35;3.58;;;;;;;;;;5037424;28;20556;-92
2023/09/24 04:32:47;;;;;;;4.63;4.10;;;;;;;;;;5036340;28;20049;-93
2023/09/24 04:35:19;;;;;;;4.18;3.70;;;;;;;;;;5034875;28;20096;-92
2023/09/24 04:37:47;;;;;;;4.93;3.60;;;;;;;;;;5034962;28;20060;-92
2023/09/24 04:40:15;;;;;;;3.95;3.60;;;;;;;;;;5034420;28;20045;-92
2023/09/24 04:42:44;;;;;;;4.93;3.05;;;;;;;;;;5034726;28;20061;-92
2023/09/24 04:45:12;;;;;;;3.72;3.33;;;;;;;;;;5034405;28;20103;-93
2023/09/24 04:47:40;;;;;;;5.50;3.13;;;;;;;;;;5034919;28;20453;-92
2023/09/24 04:50:11;;;;;;;4.30;2.70;;;;;;;;;;5034414;28;20049;-92
2023/09/24 04:52:41;;;;;;;4.75;2.85;;;;;;;;;;5034464;28;20053;-92
2023/09/24 04:55:09;;;;;;;4.68;3.45;;;;;;;;;;5050921;28;20044;-92
2023/09/24 04:57:37;;;;;;;7.65;2.85;;;;;;;;;;5034280;28;20054;-92
2023/09/24 05:00:04;;;;;;;4.38;2.53;;;;;;;;;;5034519;28;20053;-92
2023/09/24 05:02:32;;;;;;;4.45;3.42;;;;;;;;;;5034349;28;20508;-92
2023/09/24 05:04:59;;;;;;;4.07;3.20;;;;;;;;;;5034023;28;20045;-92
2023/09/24 05:07:27;;;;;;;3.35;3.05;;;;;;;;;;5030503;28;20054;-92
2023/09/24 05:09:55;;;;;;;4.43;4.13;;;;;;;;;;5049635;28;20049;-92
2023/09/24 05:12:23;;;;;;;4.25;3.75;;;;;;;;;;5050631;28;20054;-92
2023/09/24 05:14:51;;;;;;;5.13;3.90;;;;;;;;;;5034034;28;20057;-92
2023/09/24 05:17:18;;;;;;;4.65;3.30;;;;;;;;;;5033921;28;20057;-92
2023/09/24 05:19:45;;;;;;;3.97;3.67;;;;;;;;;;5033594;28;20497;-91
2023/09/24 05:22:13;;;;;;;6.22;3.55;;;;;;;;;;5050451;28;20060;-92
2023/09/24 05:24:41;;;;;;;3.65;3.42;;;;;;;;;;5033950;28;20520;-92
2023/09/24 05:27:08;;;;;;;4.20;3.80;;;;;;;;;;5034110;28;20175;-92
2023/09/24 05:29:36;;;;;;;5.03;3.08;;;;;;;;;;5033770;28;20129;-92
2023/09/24 05:32:03;;;;;;;5.07;3.65;;;;;;;;;;5022510;28;20054;-91
2023/09/24 05:34:30;;;;;;;5.45;3.78;;;;;;;;;;5045974;28;20064;-91
2023/09/24 05:36:58;;;;;;;4.45;2.92;;;;;;;;;;5033201;28;20049;-91
2023/09/24 05:39:27;;;;;;;3.47;3.28;;;;;;;;;;5033589;28;20127;-91
2023/09/24 05:41:55;;;;;;;3.85;2.90;;;;;;;;;;5033716;28;20052;-92
2023/09/24 05:44:24;;;;;;;4.00;3.20;;;;;;;;;;5033440;28;20061;-92
2023/09/24 05:46:52;;;;;;;4.30;3.60;;;;;;;;;;5033575;28;20410;-92
2023/09/24 05:49:19;;;;;;;3.33;3.05;;;;;;;;;;5033568;28;20049;-93
2023/09/24 05:51:47;;;;;;;4.47;3.17;;;;;;;;;;5033657;28;20056;-92
2023/09/24 05:54:14;;;;;;;2.75;2.50;;;;;;;;;;5033340;28;20104;-92
2023/09/24 05:56:43;;;;;;;4.25;2.67;;;;;;;;;;5033463;28;20056;-92
2023/09/24 05:59:10;;;;;;;2.90;2.70;;;;;;;;;;5029983;28;20046;-93
2023/09/24 06:01:39;;;;;;;2.70;2.50;;;;;;;;;;5038063;28;20049;-92
2023/09/24 06:04:07;;;;;;;3.35;2.60;;;;;;;;;;5033315;28;20053;-92
2023/09/24 06:06:34;;;;;;;3.05;2.75;;;;;;;;;;5033440;28;20060;-93
2023/09/24 06:09:03;;;;;;;3.03;2.40;;;;;;;;;;5025417;28;20045;-92
2023/09/24 06:11:30;;;;;;;4.72;2.47;;;;;;;;;;5032932;28;20489;-92
2023/09/24 06:13:57;;;;;;;2.75;2.40;;;;;;;;;;5032971;28;20217;-92
2023/09/24 06:16:25;;;;;;;3.90;2.80;;;;;;;;;;5049197;28;20493;-92
2023/09/24 06:18:52;;;;;;;3.42;2.33;;;;;;;;;;5032888;28;20053;-92
2023/09/24 06:21:20;;;;;;;3.00;2.63;;;;;;;;;;5032998;28;20117;-91
2023/09/24 06:23:47;;;;;;;5.07;2.40;;;;;;;;;;5032950;28;20728;-92
2023/09/24 06:26:15;;;;;;;4.68;2.40;;;;;;;;;;5040984;28;20486;-92
2023/09/24 06:28:42;;;;;;;3.08;2.88;;;;;;;;;;5032780;28;20046;-91
2023/09/24 06:31:27;;;;;;;2.70;2.50;;;;;;;;;;5031113;28;20132;-92
2023/09/24 06:33:55;;;;;;;3.10;2.90;;;;;;;;;;5032124;28;20049;-92
2023/09/24 06:36:22;;;;;;;3.10;2.80;;;;;;;;;;5028589;28;20064;-92
2023/09/24 06:38:51;;;;;;;3.40;2.65;;;;;;;;;;5046609;28;20478;-92
2023/09/24 06:41:18;;;;;;;2.30;2.20;;;;;;;;;;5031927;28;20091;-91
2023/09/24 06:43:45;;;;;;;3.95;2.35;;;;;;;;;;5031822;28;20262;-91
2023/09/24 06:46:13;;;;;;;2.25;2.00;;;;;;;;;;5028301;28;20054;-90
2023/09/24 06:48:40;;;;;;;2.47;2.17;;;;;;;;;;5045718;28;20063;-91
2023/09/24 06:51:09;;;;;;;3.53;2.28;;;;;;;;;;5031594;28;20057;-91
2023/09/24 06:53:38;;;;;;;2.35;2.17;;;;;;;;;;5028160;28;20418;-91
2023/09/24 06:56:07;;;;;;;3.08;1.95;;;;;;;;;;5031315;28;20057;-91
2023/09/24 06:58:34;;;;;;;4.45;1.73;;;;;;;;;;5032784;28;20054;-91
2023/09/24 07:01:03;;;;;;;2.13;1.92;;;;;;;;;;5023854;28;20069;-91
2023/09/24 07:03:31;;;;;;;2.92;1.83;;;;;;;;;;5031793;28;20417;-91
2023/09/24 07:05:59;;;;;;;3.25;1.75;;;;;;;;;;5031505;28;20049;-91
2023/09/24 07:08:27;;;;;;;2.03;1.83;;;;;;;;;;5048137;28;20077;-90
2023/09/24 07:11:13;;;;;;;2.55;1.83;;;;;;;;;;5031580;28;20115;-89
2023/09/24 07:13:41;;;;;;;1.85;1.63;;;;;;;;;;5031660;28;20096;-91
2023/09/24 07:16:09;;;;;;;1.75;1.63;;;;;;;;;;5028120;28;20107;-91
2023/09/24 07:18:36;;;;;;;4.43;2.20;;;;;;;;;;5044651;28;20084;-91
2023/09/24 07:21:04;;;;;;;3.50;1.90;;;;;;;;;;5031796;28;20052;-90
2023/09/24 07:23:35;;;;;;;2.00;1.52;;;;;;;;;;5032635;28;20061;-91
2023/09/24 07:26:02;;;;;;;4.47;1.77;;;;;;;;;;5031669;28;20504;-90
2023/09/24 07:28:30;;;;;;;1.90;1.50;;;;;;;;;;5028150;28;20107;-91
2023/09/24 07:30:57;;;;;;;2.05;1.65;;;;;;;;;;5047004;28;20050;-90
2023/09/24 07:33:26;;;;;;;4.85;1.80;;;;;;;;;;5047766;28;20103;-91
2023/09/24 07:35:53;;;;;;;3.33;1.50;;;;;;;;;;5031339;28;20441;-90
2023/09/24 07:38:21;;;;;;;1.80;1.70;;;;;;;;;;5031525;28;20049;-91
2023/09/24 07:40:49;;;;;;;3.35;1.65;;;;;;;;;;5031176;28;20045;-90
2023/09/24 07:43:16;;;;;;;2.30;1.17;;;;;;;;;;5031332;28;20103;-92
2023/09/24 07:45:44;;;;;;;1.65;1.30;;;;;;;;;;5031204;28;20076;-90
2023/09/24 07:48:14;;;;;;;1.52;1.27;;;;;;;;;;5031384;28;20045;-90
2023/09/24 07:50:48;;;;;;;1.30;1.20;;;;;;;;;;5031007;28;20060;-90
2023/09/24 07:53:15;;;;;;;1.10;1.00;;;;;;;;;;5031397;28;20050;-90
2023/09/24 07:55:42;;;;;;;6.03;1.65;;;;;;;;;;5032109;28;20049;-89
2023/09/24 07:58:10;;;;;;;1.67;1.35;;;;;;;;;;5031066;28;20052;-91
2023/09/24 08:00:38;;;;;;;1.42;1.33;;;;;;;;;;5027740;28;20054;-90
2023/09/24 08:03:06;;;;;;;2.42;1.55;;;;;;;;;;5031283;28;20060;-90
2023/09/24 08:05:34;;;;;;;2.60;1.40;;;;;;;;;;5031371;28;20199;-90
2023/09/24 08:08:01;;;;;;;1.50;1.40;;;;;;;;;;5032313;28;20409;-90
2023/09/24 08:10:28;;;;;;;1.27;1.20;;;;;;;;;;5034232;28;20501;-90
2023/09/24 08:12:56;;;;;;;1.10;0.90;;;;;;;;;;5034539;28;20406;-90
2023/09/24 08:15:23;;;;;;;3.38;1.23;;;;;;;;;;5035726;28;20081;-89
2023/09/24 08:17:51;;;;;;;2.15;1.08;;;;;;;;;;5032435;28;20062;-90
2023/09/24 08:20:19;;;;;;;1.60;1.13;;;;;;;;;;5051063;28;20489;-89
2023/09/24 08:22:46;;;;;;;3.47;1.33;;;;;;;;;;5032659;28;20046;-90
2023/09/24 08:25:14;;;;;;;1.52;1.00;;;;;;;;;;5030972;28;20120;-90
2023/09/24 08:27:42;;;;;;;1.50;0.93;;;;;;;;;;5048359;28;20049;-89
2023/09/24 08:30:09;;;;;;;1.10;0.90;;;;;;;;;;5034179;28;20099;-90
2023/09/24 08:32:37;;;;;;;3.40;1.00;;;;;;;;;;5034010;28;20081;-90
2023/09/24 08:35:04;;;;;;;1.52;1.00;;;;;;;;;;5034568;28;20053;-90
2023/09/24 08:37:33;;;;;;;1.90;1.20;;;;;;;;;;5034134;28;20080;-90
2023/09/24 08:40:00;;;;;;;2.58;1.10;;;;;;;;;;5027974;28;20111;-90
2023/09/24 08:42:28;;;;;;;2.08;1.05;;;;;;;;;;5050888;28;20914;-90
2023/09/24 08:45:00;;;;;;;9.93;6.72;;;;;;;;;;5034004;28;20049;-91
2023/09/24 08:47:28;;;;;;;5.68;4.97;;;;;;;;;;5033796;28;20505;-91
2023/09/24 08:49:56;;;;;;;5.03;1.38;;;;;;;;;;5034922;28;20060;-90
2023/09/24 08:52:23;;;;;;;1.20;1.10;;;;;;;;;;5033921;28;20045;-90
2023/09/24 08:54:51;;;;;;;3.05;2.53;;;;;;;;;;5033694;28;20049;-89
2023/09/24 08:57:20;;;;;;;2.35;1.85;;;;;;;;;;5030305;28;20045;-89
2023/09/24 08:59:48;;;;;;;3.42;1.52;;;;;;;;;;5032904;28;20367;-89
2023/09/24 09:02:15;;;;;;;6.38;1.52;;;;;;;;;;5033839;28;20072;-90
2023/09/24 09:04:49;;;;;;;2.42;1.05;;;;;;;;;;5033628;28;20051;-90
2023/09/24 09:07:18;;;;;;;1.65;1.15;;;;;;;;;;5033830;28;20523;-88
2023/09/24 09:09:55;;;;;;;3.47;1.10;;;;;;;;;;5034591;28;20383;-89
2023/09/24 09:12:24;;;;;;;3.30;1.20;;;;;;;;;;5030330;28;20485;-90
2023/09/24 09:14:51;;;;;;;2.08;1.00;;;;;;;;;;5033139;28;20590;-90
2023/09/24 09:17:18;;;;;;;1.15;0.90;;;;;;;;;;5049595;28;20465;-89
2023/09/24 09:19:52;;;;;;;1.63;0.80;;;;;;;;;;5033434;28;20075;-89
2023/09/24 09:22:21;;;;;;;2.88;0.98;;;;;;;;;;5033174;28;20417;-92
2023/09/24 09:24:49;;;;;;;3.38;1.23;;;;;;;;;;5031551;28;20053;-88
2023/09/24 09:27:17;;;;;;;0.80;0.60;;;;;;;;;;5033136;28;20061;-90
2023/09/24 09:29:44;;;;;;;1.98;0.95;;;;;;;;;;5033731;28;20037;-90
2023/09/24 09:32:11;;;;;;;1.30;0.80;;;;;;;;;;5033839;28;20057;-89
2023/09/24 09:34:51;;;;;;;0.77;0.77;;;;;;;;;;5033388;28;20057;-90
2023/09/24 09:37:20;;;;;;;0.80;0.77;;;;;;;;;;5030670;28;20046;-90
2023/09/24 09:39:48;;;;;;;2.33;0.80;;;;;;;;;;5047636;28;20101;-89
2023/09/24 09:42:22;;;;;;;1.10;0.50;;;;;;;;;;5032725;28;20049;-89
2023/09/24 09:44:51;;;;;;;0.93;0.65;;;;;;;;;;5032832;28;20494;-88
2023/09/24 09:47:21;;;;;;;1.48;0.73;;;;;;;;;;5032449;28;20042;-90
2023/09/24 09:49:56;;;;;;;2.13;0.80;;;;;;;;;;5031743;28;20053;-90
2023/09/24 09:52:24;;;;;;;2.50;0.80;;;;;;;;;;5032161;28;20073;-91
2023/09/24 09:54:53;;;;;;;1.60;0.88;;;;;;;;;;5033360;28;20053;-89
2023/09/24 09:57:20;;;;;;;1.77;0.70;;;;;;;;;;5033614;28;20099;-90
2023/09/24 09:59:48;;;;;;;2.45;0.80;;;;;;;;;;5033660;28;20048;-90
2023/09/24 10:02:16;;;;;;;2.20;0.70;;;;;;;;;;5034721;28;20053;-90
2023/09/24 10:04:44;;;;;;;1.63;0.60;;;;;;;;;;5034315;28;20099;-89
2023/09/24 10:07:11;;;;;;;0.52;0.40;;;;;;;;;;5033219;28;20421;-88
2023/09/24 10:09:39;;;;;;;0.50;0.47;;;;;;;;;;5033881;28;20049;-89
2023/09/24 10:12:07;;;;;;;0.55;0.52;;;;;;;;;;5034336;28;20053;-89
2023/09/24 10:14:39;;;;;;;1.60;0.63;;;;;;;;;;5033150;28;20136;-89
2023/09/24 10:17:16;;;;;;;0.90;0.63;;;;;;;;;;5027901;28;20045;-89
2023/09/24 10:19:50;;;;;;;1.95;0.52;;;;;;;;;;5032960;28;20506;-89
2023/09/24 10:22:27;;;;;;;0.60;0.40;;;;;;;;;;5033476;28;20493;-89
2023/09/24 10:24:55;;;;;;;0.45;0.40;;;;;;;;;;5034069;28;20107;-90
2023/09/24 10:27:26;;;;;;;2.28;0.60;;;;;;;;;;5033972;28;20046;-90
2023/09/24 10:29:54;;;;;;;0.60;0.43;;;;;;;;;;5032901;28;20053;-89
2023/09/24 10:32:22;;;;;;;0.50;0.50;;;;;;;;;;5032686;28;20218;-89
2023/09/24 10:34:54;;;;;;;1.30;0.35;;;;;;;;;;5033163;28;20069;-92
2023/09/24 10:37:22;;;;;;;1.77;0.60;;;;;;;;;;5033873;28;20056;-90
2023/09/24 10:40:04;;;;;;;0.93;0.50;;;;;;;;;;5032456;28;20077;-89
2023/09/24 10:42:32;;;;;;;1.10;0.40;;;;;;;;;;5032479;28;20086;-90
2023/09/24 10:45:09;;;;;;;1.20;0.60;;;;;;;;;;5032650;28;20049;-90
2023/09/24 10:47:38;;;;;;;1.00;0.50;;;;;;;;;;5028489;28;20073;-90
2023/09/24 10:50:07;;;;;;;2.55;0.40;;;;;;;;;;5032640;28;20046;-87
2023/09/24 10:52:53;;;;;;;1.10;0.60;;;;;;;;;;5032931;28;20057;-90
2023/09/24 10:55:36;;;;;;;1.15;0.40;;;;;;;;;;5026792;28;20132;-89
2023/09/24 10:58:06;;;;;;;0.98;0.77;;;;;;;;;;5032502;28;20050;-90
2023/09/24 11:00:37;;;;;;;1.30;0.43;;;;;;;;;;5033659;28;20148;-90
2023/09/24 11:03:06;;;;;;;1.13;0.40;;;;;;;;;;5032629;28;20479;-88
2023/09/24 11:05:40;;;;;;;0.88;0.32;;;;;;;;;;5032350;28;20489;-89
2023/09/24 11:08:08;;;;;;;1.75;0.40;;;;;;;;;;5025406;28;20057;-89
2023/09/24 11:10:35;;;;;;;1.15;0.38;;;;;;;;;;5033791;28;20045;-90
2023/09/24 11:13:03;;;;;;;1.10;0.38;;;;;;;;;;5029738;28;20089;-90
2023/09/24 11:15:34;;;;;;;1.80;0.30;;;;;;;;;;5045122;28;20053;-89
2023/09/24 11:18:02;;;;;;;0.45;0.30;;;;;;;;;;5024929;28;20045;-90
2023/09/24 11:20:31;;;;;;;1.23;0.60;;;;;;;;;;5048421;28;20544;-90
2023/09/24 11:23:08;;;;;;;1.30;0.52;;;;;;;;;;5032446;28;20053;-91
2023/09/24 11:25:36;;;;;;;1.52;0.70;;;;;;;;;;5024507;28;20109;-90
2023/09/24 11:28:04;;;;;;;1.30;0.43;;;;;;;;;;5033807;28;20049;-89
2023/09/24 11:30:47;;;;;;;0.52;0.40;;;;;;;;;;5032009;28;20045;-90
2023/09/24 11:33:22;;;;;;;0.95;0.50;;;;;;;;;;5028378;28;20108;-90
2023/09/24 11:35:53;;;;;;;1.40;0.63;;;;;;;;;;5044675;28;20045;-89
2023/09/24 11:38:28;;;;;;;0.80;0.52;;;;;;;;;;5035228;28;20502;-89
2023/09/24 11:41:05;;;;;;;1.30;0.50;;;;;;;;;;5032094;28;20049;-91
2023/09/24 11:43:32;;;;;;;1.15;0.40;;;;;;;;;;5031308;28;20050;-92
2023/09/24 11:46:00;;;;;;;0.88;0.40;;;;;;;;;;5052625;28;20564;-90
2023/09/24 11:48:29;;;;;;;2.38;0.60;;;;;;;;;;5052887;28;20054;-92
2023/09/24 11:51:03;;;;;;;1.33;0.50;;;;;;;;;;5036410;28;20061;-90
2023/09/24 11:53:30;;;;;;;0.68;0.50;;;;;;;;;;5035808;28;20115;-91
2023/09/24 11:55:59;;;;;;;0.75;0.55;;;;;;;;;;5036293;28;20104;-91
2023/09/24 11:58:27;;;;;;;1.63;0.60;;;;;;;;;;5036247;28;20486;-91
2023/09/24 12:00:56;;;;;;;1.70;0.50;;;;;;;;;;5035723;28;20107;-91
2023/09/24 12:03:24;;;;;;;1.60;0.60;;;;;;;;;;5036881;28;20049;-92
2023/09/24 12:05:52;;;;;;;0.85;0.55;;;;;;;;;;5035289;28;20060;-89
2023/09/24 12:08:20;;;;;;;0.70;0.40;;;;;;;;;;5035742;28;20084;-91
2023/09/24 12:10:47;;;;;;;1.17;0.40;;;;;;;;;;5033562;28;20049;-90
2023/09/24 12:13:16;;;;;;;0.82;0.60;;;;;;;;;;5036583;28;20073;-92
2023/09/24 12:15:44;;;;;;;0.50;0.50;;;;;;;;;;5054082;28;20057;-91
2023/09/24 12:18:12;;;;;;;0.80;0.50;;;;;;;;;;5035475;28;20485;-91
2023/09/24 12:20:40;;;;;;;5.75;0.80;;;;;;;;;;5036487;28;20073;-90
2023/09/24 12:23:09;;;;;;;3.17;0.50;;;;;;;;;;5035662;28;20063;-93
2023/09/24 12:25:37;;;;;;;0.82;0.60;;;;;;;;;;5036345;28;20057;-92
2023/09/24 12:28:06;;;;;;;1.55;0.70;;;;;;;;;;5027802;28;20049;-92
2023/09/24 12:30:34;;;;;;;1.67;0.52;;;;;;;;;;5036160;28;20509;-93
2023/09/24 12:33:01;;;;;;;0.47;0.43;;;;;;;;;;5023583;28;20053;-93
2023/09/24 12:35:29;;;;;;;1.95;0.60;;;;;;;;;;5046888;28;20053;-92
2023/09/24 12:37:56;;;;;;;0.73;0.40;;;;;;;;;;5051671;28;20544;-89
2023/09/24 12:40:24;;;;;;;1.08;0.60;;;;;;;;;;5031712;28;20490;-91
2023/09/24 12:42:52;;;;;;;0.50;0.40;;;;;;;;;;5050178;28;20057;-92
2023/09/24 12:45:19;;;;;;;0.57;0.40;;;;;;;;;;5034679;28;20049;-90
2023/09/24 12:47:47;;;;;;;0.70;0.50;;;;;;;;;;5034396;28;20095;-91
2023/09/24 12:50:14;;;;;;;0.90;0.55;;;;;;;;;;5034976;28;20516;-92
2023/09/24 12:52:45;;;;;;;1.05;0.52;;;;;;;;;;5035085;28;20080;-91
2023/09/24 12:55:15;;;;;;;0.82;0.40;;;;;;;;;;5033494;28;20049;-91
2023/09/24 12:57:46;;;;;;;1.02;0.45;;;;;;;;;;5032522;28;20379;-91
2023/09/24 13:00:14;;;;;;;2.95;1.02;;;;;;;;;;5035207;28;20061;-93
2023/09/24 13:02:44;;;;;;;0.68;0.57;;;;;;;;;;5036310;28;20060;-94
2023/09/24 13:05:13;;;;;;;2.33;0.88;;;;;;;;;;5038080;28;20053;-92
2023/09/24 13:07:43;;;;;;;0.75;0.38;;;;;;;;;;5037184;28;20408;-90
2023/09/24 13:10:12;;;;;;;1.48;0.50;;;;;;;;;;5036536;28;20132;-91
2023/09/24 13:12:39;;;;;;;1.02;0.60;;;;;;;;;;5034317;28;20053;-94
2023/09/24 13:15:08;;;;;;;0.88;0.52;;;;;;;;;;5034437;28;20083;-93
2023/09/24 13:17:36;;;;;;;1.50;1.17;;;;;;;;;;5034197;28;20049;-91
2023/09/24 13:20:04;;;;;;;2.88;0.98;;;;;;;;;;5034468;28;20049;-90
2023/09/24 13:22:32;;;;;;;1.10;0.40;;;;;;;;;;5034608;28;20053;-93
2023/09/24 13:25:00;;;;;;;0.32;0.30;;;;;;;;;;5034700;28;20056;-93
2023/09/24 13:27:27;;;;;;;0.63;0.50;;;;;;;;;;5034418;28;20046;-92
2023/09/24 13:29:55;;;;;;;1.27;0.40;;;;;;;;;;5034810;28;20045;-92
2023/09/24 13:32:22;;;;;;;0.40;0.40;;;;;;;;;;5030582;28;20065;-92
2023/09/24 13:34:49;;;;;;;0.43;0.30;;;;;;;;;;5049192;28;20140;-91
2023/09/24 13:37:17;;;;;;;0.85;0.50;;;;;;;;;;5031104;28;20074;-94
2023/09/24 13:39:44;;;;;;;0.85;0.40;;;;;;;;;;5048279;28;20087;-90
2023/09/24 13:42:12;;;;;;;1.17;0.40;;;;;;;;;;5034100;28;20096;-93
2023/09/24 13:44:39;;;;;;;0.70;0.30;;;;;;;;;;5034122;28;20049;-94
2023/09/24 13:47:06;;;;;;;0.40;0.40;;;;;;;;;;5034316;28;20099;-92
2023/09/24 13:49:37;;;;;;;0.52;0.50;;;;;;;;;;5033782;28;20406;-91
2023/09/24 13:52:04;;;;;;;0.80;0.80;;;;;;;;;;5026009;28;20107;-93
2023/09/24 13:54:32;;;;;;;1.15;0.50;;;;;;;;;;5033733;28;20049;-95
2023/09/24 13:57:00;;;;;;;1.85;0.30;;;;;;;;;;5033855;28;20138;-92
2023/09/24 13:59:28;;;;;;;5.05;0.50;;;;;;;;;;5033628;28;20053;-91
2023/09/24 14:01:56;;;;;;;1.00;0.47;;;;;;;;;;5033820;28;20144;-91
2023/09/24 14:04:23;;;;;;;0.60;0.40;;;;;;;;;;5050182;28;20053;-91
2023/09/24 14:06:51;;;;;;;1.92;0.38;;;;;;;;;;5033079;28;20061;-91
2023/09/24 14:12:24;;;;;;;0.73;0.73;;;;;;;;;;5034494;28;20056;-90
2023/09/24 14:14:55;;;;;;;0.98;0.50;;;;;;;;;;5033497;28;20058;-90
2023/09/24 14:17:22;;;;;;;1.00;0.60;;;;;;;;;;5029551;28;20116;-90
2023/09/24 14:19:53;;;;;;;0.88;0.25;;;;;;;;;;5048069;28;20537;-89
2023/09/24 14:22:20;;;;;;;1.98;0.30;;;;;;;;;;5033239;28;20107;-90
2023/09/24 14:24:47;;;;;;;0.40;0.40;;;;;;;;;;5033001;28;20099;-91
2023/09/24 14:27:15;;;;;;;0.40;0.30;;;;;;;;;;5049735;28;20053;-94
2023/09/24 14:29:43;;;;;;;1.75;0.47;;;;;;;;;;5032606;28;20448;-90
2023/09/24 14:32:10;;;;;;;1.55;0.50;;;;;;;;;;5032625;28;20114;-89
2023/09/24 14:34:37;;;;;;;0.57;0.40;;;;;;;;;;5032749;28;20049;-93
2023/09/24 14:37:05;;;;;;;1.40;0.35;;;;;;;;;;5032295;28;20053;-92
2023/09/24 14:39:32;;;;;;;0.65;0.60;;;;;;;;;;5031562;28;20111;-90
2023/09/24 14:41:59;;;;;;;0.30;0.30;;;;;;;;;;5032531;28;20080;-90
2023/09/24 14:44:32;;;;;;;0.82;0.30;;;;;;;;;;5032568;28;20083;-89
2023/09/24 14:46:59;;;;;;;0.57;0.38;;;;;;;;;;5032920;28;20053;-90
2023/09/24 14:49:31;;;;;;;1.48;0.68;;;;;;;;;;5032742;28;20132;-90
2023/09/24 14:51:58;;;;;;;1.23;0.40;;;;;;;;;;5033063;28;20482;-90
2023/09/24 14:54:26;;;;;;;10.20;0.50;;;;;;;;;;5040760;28;20505;-90
2023/09/24 14:56:53;;;;;;;8.15;1.00;;;;;;;;;;5032492;28;20123;-91